sensor_id;sensor_type;location;lat;lon;timestamp;P1;durP1;ratioP1;P2;durP2;ratioP2
29370;SDS011;16357;52.188;7.838;2024-01-11T00:00:29;41.55;;;19.35;;
29370;SDS011;16357;52.188;7.838;2024-01-11T00:02:56;43.80;;;19.40;;
29370;SDS011;16357;52.188;7.838;2024-01-11T00:05:22;39.75;;;18.73;;
29370;SDS011;16357;52.188;7.838;2024-01-11T00:07:49;43.05;;;19.77;;
29370;SDS011;16357;52.188;7.838;2024-01-11T00:10:16;39.65;;;18.63;;
29370;SDS011;16357;52.188;7.838;2024-01-11T00:12:43;39.97;;;18.33;;
29370;SDS011;16357;52.188;7.838;2024-01-11T00:15:09;42.00;;;19.73;;
29370;SDS011;16357;52.188;7.838;2024-01-11T00:17:36;43.50;;;18.67;;
29370;SDS011;16357;52.188;7.838;2024-01-11T00:20:03;45.65;;;19.20;;
29370;SDS011;16357;52.188;7.838;2024-01-11T00:22:30;43.35;;;20.10;;
29370;SDS011;16357;52.188;7.838;2024-01-11T00:24:57;42.38;;;19.20;;
29370;SDS011;16357;52.188;7.838;2024-01-11T00:27:23;42.92;;;19.45;;
29370;SDS011;16357;52.188;7.838;2024-01-11T00:29:50;42.65;;;19.13;;
29370;SDS011;16357;52.188;7.838;2024-01-11T00:32:16;43.33;;;20.10;;
29370;SDS011;16357;52.188;7.838;2024-01-11T00:34:42;40.95;;;18.98;;
29370;SDS011;16357;52.188;7.838;2024-01-11T00:37:09;42.28;;;20.08;;
29370;SDS011;16357;52.188;7.838;2024-01-11T00:39:36;39.47;;;18.52;;
29370;SDS011;16357;52.188;7.838;2024-01-11T00:42:02;46.88;;;19.90;;
29370;SDS011;16357;52.188;7.838;2024-01-11T00:44:29;39.88;;;19.02;;
29370;SDS011;16357;52.188;7.838;2024-01-11T00:46:56;42.03;;;19.45;;
29370;SDS011;16357;52.188;7.838;2024-01-11T00:49:22;48.92;;;19.75;;
29370;SDS011;16357;52.188;7.838;2024-01-11T00:51:49;37.70;;;18.60;;
29370;SDS011;16357;52.188;7.838;2024-01-11T00:54:15;42.13;;;19.60;;
29370;SDS011;16357;52.188;7.838;2024-01-11T00:56:41;41.47;;;19.75;;
29370;SDS011;16357;52.188;7.838;2024-01-11T00:59:08;47.58;;;21.30;;
29370;SDS011;16357;52.188;7.838;2024-01-11T01:01:35;42.42;;;20.60;;
29370;SDS011;16357;52.188;7.838;2024-01-11T01:04:01;37.55;;;18.95;;
29370;SDS011;16357;52.188;7.838;2024-01-11T01:06:28;41.25;;;19.27;;
29370;SDS011;16357;52.188;7.838;2024-01-11T01:08:55;39.55;;;19.42;;
29370;SDS011;16357;52.188;7.838;2024-01-11T01:11:21;45.13;;;21.50;;
29370;SDS011;16357;52.188;7.838;2024-01-11T01:13:48;42.60;;;19.85;;
29370;SDS011;16357;52.188;7.838;2024-01-11T01:16:14;45.00;;;19.55;;
29370;SDS011;16357;52.188;7.838;2024-01-11T01:18:43;41.60;;;20.13;;
29370;SDS011;16357;52.188;7.838;2024-01-11T01:21:09;41.95;;;19.42;;
29370;SDS011;16357;52.188;7.838;2024-01-11T01:23:36;45.53;;;20.42;;
29370;SDS011;16357;52.188;7.838;2024-01-11T01:26:03;45.38;;;20.30;;
29370;SDS011;16357;52.188;7.838;2024-01-11T01:28:32;41.13;;;20.48;;
29370;SDS011;16357;52.188;7.838;2024-01-11T01:30:59;41.55;;;20.77;;
29370;SDS011;16357;52.188;7.838;2024-01-11T01:33:26;39.58;;;19.33;;
29370;SDS011;16357;52.188;7.838;2024-01-11T01:35:52;45.40;;;20.35;;
29370;SDS011;16357;52.188;7.838;2024-01-11T01:38:19;43.05;;;19.10;;
29370;SDS011;16357;52.188;7.838;2024-01-11T01:40:45;41.97;;;19.48;;
29370;SDS011;16357;52.188;7.838;2024-01-11T01:43:12;41.83;;;18.90;;
29370;SDS011;16357;52.188;7.838;2024-01-11T01:45:39;41.40;;;19.67;;
29370;SDS011;16357;52.188;7.838;2024-01-11T01:48:06;40.28;;;19.23;;
29370;SDS011;16357;52.188;7.838;2024-01-11T01:50:33;38.58;;;17.73;;
29370;SDS011;16357;52.188;7.838;2024-01-11T01:53:00;38.70;;;18.48;;
29370;SDS011;16357;52.188;7.838;2024-01-11T01:55:27;40.85;;;19.45;;
29370;SDS011;16357;52.188;7.838;2024-01-11T01:57:55;35.25;;;17.65;;
29370;SDS011;16357;52.188;7.838;2024-01-11T02:00:23;38.10;;;18.20;;
29370;SDS011;16357;52.188;7.838;2024-01-11T02:02:50;43.60;;;18.98;;
29370;SDS011;16357;52.188;7.838;2024-01-11T02:05:19;40.08;;;18.08;;
29370;SDS011;16357;52.188;7.838;2024-01-11T02:07:46;36.85;;;17.90;;
29370;SDS011;16357;52.188;7.838;2024-01-11T02:10:12;38.30;;;16.95;;
29370;SDS011;16357;52.188;7.838;2024-01-11T02:12:39;36.75;;;18.10;;
29370;SDS011;16357;52.188;7.838;2024-01-11T02:15:07;39.53;;;18.20;;
29370;SDS011;16357;52.188;7.838;2024-01-11T02:17:34;36.05;;;18.00;;
29370;SDS011;16357;52.188;7.838;2024-01-11T02:20:01;35.70;;;17.65;;
29370;SDS011;16357;52.188;7.838;2024-01-11T02:22:36;39.60;;;17.40;;
29370;SDS011;16357;52.188;7.838;2024-01-11T02:25:06;32.88;;;15.23;;
29370;SDS011;16357;52.188;7.838;2024-01-11T02:27:46;34.45;;;17.25;;
29370;SDS011;16357;52.188;7.838;2024-01-11T02:30:13;34.20;;;15.90;;
29370;SDS011;16357;52.188;7.838;2024-01-11T02:32:40;34.63;;;16.10;;
29370;SDS011;16357;52.188;7.838;2024-01-11T02:35:07;36.63;;;16.20;;
29370;SDS011;16357;52.188;7.838;2024-01-11T02:37:34;41.67;;;17.77;;
29370;SDS011;16357;52.188;7.838;2024-01-11T02:40:03;36.50;;;17.17;;
29370;SDS011;16357;52.188;7.838;2024-01-11T02:42:31;35.53;;;17.95;;
29370;SDS011;16357;52.188;7.838;2024-01-11T02:44:57;38.67;;;18.50;;
29370;SDS011;16357;52.188;7.838;2024-01-11T02:47:24;36.50;;;17.20;;
29370;SDS011;16357;52.188;7.838;2024-01-11T02:49:51;36.97;;;17.00;;
29370;SDS011;16357;52.188;7.838;2024-01-11T02:52:17;37.60;;;17.00;;
29370;SDS011;16357;52.188;7.838;2024-01-11T02:54:44;37.42;;;16.05;;
29370;SDS011;16357;52.188;7.838;2024-01-11T02:57:11;37.97;;;17.23;;
29370;SDS011;16357;52.188;7.838;2024-01-11T02:59:37;41.42;;;18.38;;
29370;SDS011;16357;52.188;7.838;2024-01-11T03:02:06;37.35;;;16.80;;
29370;SDS011;16357;52.188;7.838;2024-01-11T03:04:32;36.30;;;17.65;;
29370;SDS011;16357;52.188;7.838;2024-01-11T03:06:59;34.72;;;17.75;;
29370;SDS011;16357;52.188;7.838;2024-01-11T03:09:25;37.13;;;18.10;;
29370;SDS011;16357;52.188;7.838;2024-01-11T03:11:52;40.20;;;18.45;;
29370;SDS011;16357;52.188;7.838;2024-01-11T03:14:19;32.20;;;16.77;;
29370;SDS011;16357;52.188;7.838;2024-01-11T03:16:45;32.78;;;15.68;;
29370;SDS011;16357;52.188;7.838;2024-01-11T03:19:12;36.45;;;17.63;;
29370;SDS011;16357;52.188;7.838;2024-01-11T03:21:45;32.20;;;15.68;;
29370;SDS011;16357;52.188;7.838;2024-01-11T03:24:13;29.90;;;14.90;;
29370;SDS011;16357;52.188;7.838;2024-01-11T03:26:40;38.20;;;18.00;;
29370;SDS011;16357;52.188;7.838;2024-01-11T03:29:07;33.63;;;16.85;;
29370;SDS011;16357;52.188;7.838;2024-01-11T03:31:34;38.05;;;17.27;;
29370;SDS011;16357;52.188;7.838;2024-01-11T03:34:01;32.03;;;16.15;;
29370;SDS011;16357;52.188;7.838;2024-01-11T03:36:28;31.55;;;16.35;;
29370;SDS011;16357;52.188;7.838;2024-01-11T03:38:54;32.85;;;16.02;;
29370;SDS011;16357;52.188;7.838;2024-01-11T03:41:21;32.58;;;16.77;;
29370;SDS011;16357;52.188;7.838;2024-01-11T03:43:47;33.63;;;16.13;;
29370;SDS011;16357;52.188;7.838;2024-01-11T03:46:14;36.15;;;16.73;;
29370;SDS011;16357;52.188;7.838;2024-01-11T03:48:40;37.65;;;16.80;;
29370;SDS011;16357;52.188;7.838;2024-01-11T03:51:07;35.08;;;16.80;;
29370;SDS011;16357;52.188;7.838;2024-01-11T03:53:34;31.77;;;14.73;;
29370;SDS011;16357;52.188;7.838;2024-01-11T03:56:03;39.90;;;18.38;;
29370;SDS011;16357;52.188;7.838;2024-01-11T03:58:30;37.88;;;17.10;;
29370;SDS011;16357;52.188;7.838;2024-01-11T04:00:56;34.25;;;17.20;;
29370;SDS011;16357;52.188;7.838;2024-01-11T04:03:23;33.85;;;16.65;;
29370;SDS011;16357;52.188;7.838;2024-01-11T04:05:50;34.35;;;17.02;;
29370;SDS011;16357;52.188;7.838;2024-01-11T04:08:16;33.10;;;17.08;;
29370;SDS011;16357;52.188;7.838;2024-01-11T04:10:43;33.85;;;16.65;;
29370;SDS011;16357;52.188;7.838;2024-01-11T04:13:10;34.33;;;16.60;;
29370;SDS011;16357;52.188;7.838;2024-01-11T04:15:36;36.83;;;16.95;;
29370;SDS011;16357;52.188;7.838;2024-01-11T04:18:03;36.28;;;17.35;;
29370;SDS011;16357;52.188;7.838;2024-01-11T04:20:30;36.63;;;18.30;;
29370;SDS011;16357;52.188;7.838;2024-01-11T04:22:56;38.40;;;17.27;;
29370;SDS011;16357;52.188;7.838;2024-01-11T04:25:23;36.42;;;17.73;;
29370;SDS011;16357;52.188;7.838;2024-01-11T04:27:49;39.05;;;16.83;;
29370;SDS011;16357;52.188;7.838;2024-01-11T04:30:16;36.92;;;17.73;;
29370;SDS011;16357;52.188;7.838;2024-01-11T04:32:42;40.85;;;17.52;;
29370;SDS011;16357;52.188;7.838;2024-01-11T04:35:09;39.00;;;19.08;;
29370;SDS011;16357;52.188;7.838;2024-01-11T04:37:36;40.05;;;18.23;;
29370;SDS011;16357;52.188;7.838;2024-01-11T04:40:03;41.72;;;18.75;;
29370;SDS011;16357;52.188;7.838;2024-01-11T04:42:30;39.58;;;18.17;;
29370;SDS011;16357;52.188;7.838;2024-01-11T04:44:56;38.70;;;17.58;;
29370;SDS011;16357;52.188;7.838;2024-01-11T04:47:23;33.28;;;16.45;;
29370;SDS011;16357;52.188;7.838;2024-01-11T04:49:49;32.60;;;15.93;;
29370;SDS011;16357;52.188;7.838;2024-01-11T04:52:16;33.53;;;16.05;;
29370;SDS011;16357;52.188;7.838;2024-01-11T04:54:43;33.28;;;16.23;;
29370;SDS011;16357;52.188;7.838;2024-01-11T04:57:09;34.20;;;16.42;;
29370;SDS011;16357;52.188;7.838;2024-01-11T04:59:36;30.33;;;14.82;;
29370;SDS011;16357;52.188;7.838;2024-01-11T05:02:02;37.05;;;16.23;;
29370;SDS011;16357;52.188;7.838;2024-01-11T05:04:29;37.08;;;16.73;;
29370;SDS011;16357;52.188;7.838;2024-01-11T05:06:56;33.97;;;15.27;;
29370;SDS011;16357;52.188;7.838;2024-01-11T05:09:23;34.03;;;15.73;;
29370;SDS011;16357;52.188;7.838;2024-01-11T05:11:49;31.27;;;15.30;;
29370;SDS011;16357;52.188;7.838;2024-01-11T05:14:16;33.72;;;16.60;;
29370;SDS011;16357;52.188;7.838;2024-01-11T05:16:42;34.08;;;16.70;;
29370;SDS011;16357;52.188;7.838;2024-01-11T05:19:09;34.58;;;17.30;;
29370;SDS011;16357;52.188;7.838;2024-01-11T05:21:36;38.28;;;17.20;;
29370;SDS011;16357;52.188;7.838;2024-01-11T05:24:03;37.10;;;16.95;;
29370;SDS011;16357;52.188;7.838;2024-01-11T05:26:29;29.90;;;14.48;;
29370;SDS011;16357;52.188;7.838;2024-01-11T05:28:56;32.47;;;15.98;;
29370;SDS011;16357;52.188;7.838;2024-01-11T05:31:23;34.53;;;15.23;;
29370;SDS011;16357;52.188;7.838;2024-01-11T05:33:49;36.60;;;17.30;;
29370;SDS011;16357;52.188;7.838;2024-01-11T05:36:16;35.22;;;16.55;;
29370;SDS011;16357;52.188;7.838;2024-01-11T05:38:43;37.83;;;16.60;;
29370;SDS011;16357;52.188;7.838;2024-01-11T05:41:11;38.85;;;18.20;;
29370;SDS011;16357;52.188;7.838;2024-01-11T05:43:38;38.47;;;17.98;;
29370;SDS011;16357;52.188;7.838;2024-01-11T05:46:06;39.58;;;17.25;;
29370;SDS011;16357;52.188;7.838;2024-01-11T05:48:33;37.42;;;17.67;;
29370;SDS011;16357;52.188;7.838;2024-01-11T05:51:00;37.88;;;18.00;;
29370;SDS011;16357;52.188;7.838;2024-01-11T05:53:27;38.63;;;17.77;;
29370;SDS011;16357;52.188;7.838;2024-01-11T05:55:54;33.92;;;16.95;;
29370;SDS011;16357;52.188;7.838;2024-01-11T05:58:21;39.33;;;18.17;;
29370;SDS011;16357;52.188;7.838;2024-01-11T06:00:47;37.03;;;18.70;;
29370;SDS011;16357;52.188;7.838;2024-01-11T06:03:14;39.90;;;18.33;;
29370;SDS011;16357;52.188;7.838;2024-01-11T06:05:41;44.97;;;20.33;;
29370;SDS011;16357;52.188;7.838;2024-01-11T06:08:08;44.38;;;18.77;;
29370;SDS011;16357;52.188;7.838;2024-01-11T06:10:34;37.20;;;17.40;;
29370;SDS011;16357;52.188;7.838;2024-01-11T06:13:01;46.60;;;20.88;;
29370;SDS011;16357;52.188;7.838;2024-01-11T06:15:27;44.05;;;19.33;;
29370;SDS011;16357;52.188;7.838;2024-01-11T06:17:54;38.42;;;18.58;;
29370;SDS011;16357;52.188;7.838;2024-01-11T06:20:21;40.28;;;18.27;;
29370;SDS011;16357;52.188;7.838;2024-01-11T06:22:47;45.70;;;18.80;;
29370;SDS011;16357;52.188;7.838;2024-01-11T06:25:14;42.85;;;18.73;;
29370;SDS011;16357;52.188;7.838;2024-01-11T06:27:41;45.45;;;20.90;;
29370;SDS011;16357;52.188;7.838;2024-01-11T06:30:09;43.35;;;21.02;;
29370;SDS011;16357;52.188;7.838;2024-01-11T06:32:36;44.33;;;21.15;;
29370;SDS011;16357;52.188;7.838;2024-01-11T06:35:02;41.00;;;19.48;;
29370;SDS011;16357;52.188;7.838;2024-01-11T06:37:29;44.75;;;18.83;;
29370;SDS011;16357;52.188;7.838;2024-01-11T06:39:56;41.28;;;20.00;;
29370;SDS011;16357;52.188;7.838;2024-01-11T06:42:23;44.30;;;19.92;;
29370;SDS011;16357;52.188;7.838;2024-01-11T06:44:49;38.65;;;17.55;;
29370;SDS011;16357;52.188;7.838;2024-01-11T06:47:16;39.17;;;18.63;;
29370;SDS011;16357;52.188;7.838;2024-01-11T06:49:44;38.08;;;17.23;;
29370;SDS011;16357;52.188;7.838;2024-01-11T06:52:11;33.80;;;17.02;;
29370;SDS011;16357;52.188;7.838;2024-01-11T06:54:39;28.90;;;15.32;;
29370;SDS011;16357;52.188;7.838;2024-01-11T06:57:06;34.17;;;15.40;;
29370;SDS011;16357;52.188;7.838;2024-01-11T06:59:32;41.50;;;17.27;;
29370;SDS011;16357;52.188;7.838;2024-01-11T07:02:00;33.03;;;17.08;;
29370;SDS011;16357;52.188;7.838;2024-01-11T07:04:26;42.05;;;19.15;;
29370;SDS011;16357;52.188;7.838;2024-01-11T07:06:54;37.28;;;18.52;;
29370;SDS011;16357;52.188;7.838;2024-01-11T07:09:21;43.28;;;18.83;;
29370;SDS011;16357;52.188;7.838;2024-01-11T07:11:48;38.60;;;18.90;;
29370;SDS011;16357;52.188;7.838;2024-01-11T07:14:14;41.33;;;18.83;;
29370;SDS011;16357;52.188;7.838;2024-01-11T07:16:41;37.95;;;18.50;;
29370;SDS011;16357;52.188;7.838;2024-01-11T07:19:07;39.42;;;19.27;;
29370;SDS011;16357;52.188;7.838;2024-01-11T07:21:34;42.55;;;19.23;;
29370;SDS011;16357;52.188;7.838;2024-01-11T07:24:00;42.03;;;18.48;;
29370;SDS011;16357;52.188;7.838;2024-01-11T07:26:27;40.33;;;19.00;;
29370;SDS011;16357;52.188;7.838;2024-01-11T07:28:54;41.28;;;19.40;;
29370;SDS011;16357;52.188;7.838;2024-01-11T07:31:23;41.30;;;19.65;;
29370;SDS011;16357;52.188;7.838;2024-01-11T07:33:50;43.55;;;20.33;;
29370;SDS011;16357;52.188;7.838;2024-01-11T07:36:17;40.50;;;19.33;;
29370;SDS011;16357;52.188;7.838;2024-01-11T07:38:43;40.78;;;19.15;;
29370;SDS011;16357;52.188;7.838;2024-01-11T07:41:10;45.42;;;21.27;;
29370;SDS011;16357;52.188;7.838;2024-01-11T07:43:38;43.28;;;20.55;;
29370;SDS011;16357;52.188;7.838;2024-01-11T07:46:19;44.88;;;20.00;;
29370;SDS011;16357;52.188;7.838;2024-01-11T07:48:54;41.13;;;19.73;;
29370;SDS011;16357;52.188;7.838;2024-01-11T07:51:21;40.33;;;17.55;;
29370;SDS011;16357;52.188;7.838;2024-01-11T07:53:48;44.30;;;20.27;;
29370;SDS011;16357;52.188;7.838;2024-01-11T07:56:14;38.97;;;19.58;;
29370;SDS011;16357;52.188;7.838;2024-01-11T07:58:41;39.97;;;19.23;;
29370;SDS011;16357;52.188;7.838;2024-01-11T08:01:09;39.15;;;18.73;;
29370;SDS011;16357;52.188;7.838;2024-01-11T08:03:36;40.58;;;19.35;;
29370;SDS011;16357;52.188;7.838;2024-01-11T08:06:03;34.80;;;17.65;;
29370;SDS011;16357;52.188;7.838;2024-01-11T08:08:30;36.25;;;18.08;;
29370;SDS011;16357;52.188;7.838;2024-01-11T08:10:56;37.92;;;17.50;;
29370;SDS011;16357;52.188;7.838;2024-01-11T08:13:23;41.95;;;18.85;;
29370;SDS011;16357;52.188;7.838;2024-01-11T08:15:49;41.42;;;18.02;;
29370;SDS011;16357;52.188;7.838;2024-01-11T08:18:18;41.90;;;18.92;;
29370;SDS011;16357;52.188;7.838;2024-01-11T08:20:45;37.33;;;18.45;;
29370;SDS011;16357;52.188;7.838;2024-01-11T08:23:11;37.63;;;18.70;;
29370;SDS011;16357;52.188;7.838;2024-01-11T08:25:38;39.05;;;18.95;;
29370;SDS011;16357;52.188;7.838;2024-01-11T08:28:05;43.47;;;19.92;;
29370;SDS011;16357;52.188;7.838;2024-01-11T08:30:31;41.53;;;19.80;;
29370;SDS011;16357;52.188;7.838;2024-01-11T08:32:58;38.58;;;19.02;;
29370;SDS011;16357;52.188;7.838;2024-01-11T08:35:24;35.13;;;18.40;;
29370;SDS011;16357;52.188;7.838;2024-01-11T08:37:51;38.67;;;18.60;;
29370;SDS011;16357;52.188;7.838;2024-01-11T08:40:17;38.63;;;18.48;;
29370;SDS011;16357;52.188;7.838;2024-01-11T08:42:44;36.67;;;17.60;;
29370;SDS011;16357;52.188;7.838;2024-01-11T08:45:11;35.40;;;18.38;;
29370;SDS011;16357;52.188;7.838;2024-01-11T08:47:45;37.40;;;19.02;;
29370;SDS011;16357;52.188;7.838;2024-01-11T08:50:13;36.10;;;18.10;;
29370;SDS011;16357;52.188;7.838;2024-01-11T08:52:41;36.67;;;17.52;;
29370;SDS011;16357;52.188;7.838;2024-01-11T08:55:08;39.00;;;19.60;;
29370;SDS011;16357;52.188;7.838;2024-01-11T08:57:35;40.60;;;19.13;;
29370;SDS011;16357;52.188;7.838;2024-01-11T09:00:04;42.13;;;20.17;;
29370;SDS011;16357;52.188;7.838;2024-01-11T09:02:34;38.67;;;18.55;;
29370;SDS011;16357;52.188;7.838;2024-01-11T09:05:01;36.35;;;18.10;;
29370;SDS011;16357;52.188;7.838;2024-01-11T09:07:34;35.15;;;17.55;;
29370;SDS011;16357;52.188;7.838;2024-01-11T09:10:00;33.47;;;16.00;;
29370;SDS011;16357;52.188;7.838;2024-01-11T09:12:27;32.40;;;14.13;;
29370;SDS011;16357;52.188;7.838;2024-01-11T09:14:53;28.10;;;14.88;;
29370;SDS011;16357;52.188;7.838;2024-01-11T09:17:21;24.98;;;13.15;;
29370;SDS011;16357;52.188;7.838;2024-01-11T09:19:48;27.02;;;13.25;;
29370;SDS011;16357;52.188;7.838;2024-01-11T09:22:14;26.10;;;13.63;;
29370;SDS011;16357;52.188;7.838;2024-01-11T09:24:41;23.75;;;12.60;;
29370;SDS011;16357;52.188;7.838;2024-01-11T09:27:08;24.90;;;13.32;;
29370;SDS011;16357;52.188;7.838;2024-01-11T09:29:35;27.15;;;12.85;;
29370;SDS011;16357;52.188;7.838;2024-01-11T09:32:01;24.42;;;12.73;;
29370;SDS011;16357;52.188;7.838;2024-01-11T09:34:29;26.38;;;12.48;;
29370;SDS011;16357;52.188;7.838;2024-01-11T09:36:55;29.27;;;12.98;;
29370;SDS011;16357;52.188;7.838;2024-01-11T09:39:25;24.30;;;13.05;;
29370;SDS011;16357;52.188;7.838;2024-01-11T09:41:56;23.85;;;12.10;;
29370;SDS011;16357;52.188;7.838;2024-01-11T09:44:25;22.50;;;11.70;;
29370;SDS011;16357;52.188;7.838;2024-01-11T09:46:53;24.27;;;12.77;;
29370;SDS011;16357;52.188;7.838;2024-01-11T09:49:20;25.33;;;13.18;;
29370;SDS011;16357;52.188;7.838;2024-01-11T09:51:48;19.75;;;10.73;;
29370;SDS011;16357;52.188;7.838;2024-01-11T09:54:16;19.65;;;10.18;;
29370;SDS011;16357;52.188;7.838;2024-01-11T09:56:47;19.33;;;9.57;;
29370;SDS011;16357;52.188;7.838;2024-01-11T09:59:18;17.75;;;9.13;;
29370;SDS011;16357;52.188;7.838;2024-01-11T10:01:48;19.45;;;9.40;;
29370;SDS011;16357;52.188;7.838;2024-01-11T10:04:15;19.63;;;9.43;;
29370;SDS011;16357;52.188;7.838;2024-01-11T10:06:42;18.85;;;9.60;;
29370;SDS011;16357;52.188;7.838;2024-01-11T10:09:09;15.77;;;9.05;;
29370;SDS011;16357;52.188;7.838;2024-01-11T10:11:37;20.98;;;10.70;;
29370;SDS011;16357;52.188;7.838;2024-01-11T10:14:04;22.63;;;11.55;;
29370;SDS011;16357;52.188;7.838;2024-01-11T10:16:31;21.38;;;10.98;;
29370;SDS011;16357;52.188;7.838;2024-01-11T10:18:58;17.63;;;9.30;;
29370;SDS011;16357;52.188;7.838;2024-01-11T10:21:25;20.48;;;10.27;;
29370;SDS011;16357;52.188;7.838;2024-01-11T10:23:53;27.15;;;10.45;;
29370;SDS011;16357;52.188;7.838;2024-01-11T10:26:20;20.30;;;11.23;;
29370;SDS011;16357;52.188;7.838;2024-01-11T10:28:48;18.58;;;10.18;;
29370;SDS011;16357;52.188;7.838;2024-01-11T10:31:14;17.23;;;8.85;;
29370;SDS011;16357;52.188;7.838;2024-01-11T10:33:41;17.75;;;8.27;;
29370;SDS011;16357;52.188;7.838;2024-01-11T10:36:08;19.17;;;9.80;;
29370;SDS011;16357;52.188;7.838;2024-01-11T10:38:38;16.45;;;8.50;;
29370;SDS011;16357;52.188;7.838;2024-01-11T10:41:06;19.75;;;8.77;;
29370;SDS011;16357;52.188;7.838;2024-01-11T10:43:36;18.02;;;8.95;;
29370;SDS011;16357;52.188;7.838;2024-01-11T10:46:04;17.80;;;8.55;;
29370;SDS011;16357;52.188;7.838;2024-01-11T10:48:33;16.15;;;7.95;;
29370;SDS011;16357;52.188;7.838;2024-01-11T10:51:07;16.88;;;9.20;;
29370;SDS011;16357;52.188;7.838;2024-01-11T10:53:45;16.77;;;9.27;;
29370;SDS011;16357;52.188;7.838;2024-01-11T10:56:14;16.17;;;8.40;;
29370;SDS011;16357;52.188;7.838;2024-01-11T10:58:44;13.82;;;8.05;;
29370;SDS011;16357;52.188;7.838;2024-01-11T11:01:13;13.85;;;7.55;;
29370;SDS011;16357;52.188;7.838;2024-01-11T11:03:40;16.00;;;7.97;;
29370;SDS011;16357;52.188;7.838;2024-01-11T11:06:09;14.00;;;7.53;;
29370;SDS011;16357;52.188;7.838;2024-01-11T11:08:37;14.93;;;7.90;;
29370;SDS011;16357;52.188;7.838;2024-01-11T11:11:04;18.67;;;10.30;;
29370;SDS011;16357;52.188;7.838;2024-01-11T11:13:32;22.00;;;11.93;;
29370;SDS011;16357;52.188;7.838;2024-01-11T11:16:01;21.98;;;11.43;;
29370;SDS011;16357;52.188;7.838;2024-01-11T11:18:30;19.95;;;11.00;;
29370;SDS011;16357;52.188;7.838;2024-01-11T11:20:59;22.95;;;12.00;;
29370;SDS011;16357;52.188;7.838;2024-01-11T11:23:26;22.13;;;11.77;;
29370;SDS011;16357;52.188;7.838;2024-01-11T11:25:54;21.17;;;12.18;;
29370;SDS011;16357;52.188;7.838;2024-01-11T11:28:23;21.77;;;12.15;;
29370;SDS011;16357;52.188;7.838;2024-01-11T11:30:52;24.17;;;12.50;;
29370;SDS011;16357;52.188;7.838;2024-01-11T11:33:20;24.70;;;12.65;;
29370;SDS011;16357;52.188;7.838;2024-01-11T11:35:52;23.50;;;12.70;;
29370;SDS011;16357;52.188;7.838;2024-01-11T11:38:21;23.65;;;13.15;;
29370;SDS011;16357;52.188;7.838;2024-01-11T11:40:48;25.33;;;13.20;;
29370;SDS011;16357;52.188;7.838;2024-01-11T11:43:18;22.13;;;12.52;;
29370;SDS011;16357;52.188;7.838;2024-01-11T11:45:48;26.52;;;13.27;;
29370;SDS011;16357;52.188;7.838;2024-01-11T11:51:05;27.23;;;13.38;;
29370;SDS011;16357;52.188;7.838;2024-01-11T11:53:36;21.55;;;12.05;;
29370;SDS011;16357;52.188;7.838;2024-01-11T11:56:04;24.17;;;12.27;;
29370;SDS011;16357;52.188;7.838;2024-01-11T11:58:31;20.17;;;11.15;;
29370;SDS011;16357;52.188;7.838;2024-01-11T12:00:59;22.25;;;11.77;;
29370;SDS011;16357;52.188;7.838;2024-01-11T12:03:28;22.50;;;12.02;;
29370;SDS011;16357;52.188;7.838;2024-01-11T12:05:59;30.08;;;13.55;;
29370;SDS011;16357;52.188;7.838;2024-01-11T12:08:26;26.27;;;13.23;;
29370;SDS011;16357;52.188;7.838;2024-01-11T12:10:53;29.00;;;14.02;;
29370;SDS011;16357;52.188;7.838;2024-01-11T12:13:20;26.67;;;12.57;;
29370;SDS011;16357;52.188;7.838;2024-01-11T12:15:47;25.55;;;12.75;;
29370;SDS011;16357;52.188;7.838;2024-01-11T12:18:13;28.17;;;12.35;;
29370;SDS011;16357;52.188;7.838;2024-01-11T12:20:40;28.15;;;12.98;;
29370;SDS011;16357;52.188;7.838;2024-01-11T12:23:07;27.30;;;12.88;;
29370;SDS011;16357;52.188;7.838;2024-01-11T12:25:34;29.48;;;14.18;;
29370;SDS011;16357;52.188;7.838;2024-01-11T12:28:01;29.23;;;14.30;;
29370;SDS011;16357;52.188;7.838;2024-01-11T12:30:28;31.65;;;15.65;;
29370;SDS011;16357;52.188;7.838;2024-01-11T12:32:59;31.45;;;15.18;;
29370;SDS011;16357;52.188;7.838;2024-01-11T12:35:30;34.63;;;15.23;;
29370;SDS011;16357;52.188;7.838;2024-01-11T12:38:04;30.63;;;14.85;;
29370;SDS011;16357;52.188;7.838;2024-01-11T12:40:35;34.72;;;15.10;;
29370;SDS011;16357;52.188;7.838;2024-01-11T12:43:06;30.77;;;15.20;;
29370;SDS011;16357;52.188;7.838;2024-01-11T12:45:36;38.63;;;16.60;;
29370;SDS011;16357;52.188;7.838;2024-01-11T12:48:06;35.17;;;15.70;;
29370;SDS011;16357;52.188;7.838;2024-01-11T12:50:33;34.45;;;15.75;;
29370;SDS011;16357;52.188;7.838;2024-01-11T12:55:47;33.67;;;17.03;;
29370;SDS011;16357;52.188;7.838;2024-01-11T12:58:23;38.13;;;17.95;;
29370;SDS011;16357;52.188;7.838;2024-01-11T13:00:53;38.63;;;17.92;;
29370;SDS011;16357;52.188;7.838;2024-01-11T13:03:20;34.53;;;16.90;;
29370;SDS011;16357;52.188;7.838;2024-01-11T13:05:47;31.67;;;15.82;;
29370;SDS011;16357;52.188;7.838;2024-01-11T13:08:15;36.42;;;15.93;;
29370;SDS011;16357;52.188;7.838;2024-01-11T13:10:44;30.52;;;15.20;;
29370;SDS011;16357;52.188;7.838;2024-01-11T13:13:14;30.92;;;14.82;;
29370;SDS011;16357;52.188;7.838;2024-01-11T13:15:40;35.47;;;15.32;;
29370;SDS011;16357;52.188;7.838;2024-01-11T13:18:07;33.60;;;15.10;;
29370;SDS011;16357;52.188;7.838;2024-01-11T13:20:34;28.63;;;14.00;;
29370;SDS011;16357;52.188;7.838;2024-01-11T13:25:43;35.50;;;14.70;;
29370;SDS011;16357;52.188;7.838;2024-01-11T13:28:10;34.13;;;15.18;;
29370;SDS011;16357;52.188;7.838;2024-01-11T13:30:38;29.27;;;14.10;;
29370;SDS011;16357;52.188;7.838;2024-01-11T13:33:06;29.42;;;14.68;;
29370;SDS011;16357;52.188;7.838;2024-01-11T13:35:34;26.83;;;13.35;;
29370;SDS011;16357;52.188;7.838;2024-01-11T13:38:01;34.22;;;16.48;;
29370;SDS011;16357;52.188;7.838;2024-01-11T13:40:28;35.10;;;16.58;;
29370;SDS011;16357;52.188;7.838;2024-01-11T13:42:55;34.72;;;15.73;;
29370;SDS011;16357;52.188;7.838;2024-01-11T13:45:23;34.47;;;16.13;;
29370;SDS011;16357;52.188;7.838;2024-01-11T13:47:50;33.50;;;14.50;;
29370;SDS011;16357;52.188;7.838;2024-01-11T13:50:17;35.42;;;15.07;;
29370;SDS011;16357;52.188;7.838;2024-01-11T13:52:45;29.75;;;14.38;;
29370;SDS011;16357;52.188;7.838;2024-01-11T13:55:12;28.45;;;14.45;;
29370;SDS011;16357;52.188;7.838;2024-01-11T13:57:39;29.05;;;14.52;;
29370;SDS011;16357;52.188;7.838;2024-01-11T14:00:08;33.40;;;15.25;;
29370;SDS011;16357;52.188;7.838;2024-01-11T14:02:37;32.28;;;14.07;;
29370;SDS011;16357;52.188;7.838;2024-01-11T14:05:06;30.83;;;14.48;;
29370;SDS011;16357;52.188;7.838;2024-01-11T14:07:38;28.55;;;14.50;;
29370;SDS011;16357;52.188;7.838;2024-01-11T14:10:06;32.97;;;16.80;;
29370;SDS011;16357;52.188;7.838;2024-01-11T14:12:35;31.58;;;14.38;;
29370;SDS011;16357;52.188;7.838;2024-01-11T14:15:05;31.88;;;16.05;;
29370;SDS011;16357;52.188;7.838;2024-01-11T14:17:33;30.17;;;15.63;;
29370;SDS011;16357;52.188;7.838;2024-01-11T14:20:00;33.05;;;16.92;;
29370;SDS011;16357;52.188;7.838;2024-01-11T14:22:28;30.98;;;16.27;;
29370;SDS011;16357;52.188;7.838;2024-01-11T14:24:55;30.58;;;16.15;;
29370;SDS011;16357;52.188;7.838;2024-01-11T14:27:21;32.22;;;16.00;;
29370;SDS011;16357;52.188;7.838;2024-01-11T14:29:49;32.78;;;17.08;;
29370;SDS011;16357;52.188;7.838;2024-01-11T14:32:16;47.33;;;23.85;;